createdAt,value
2017-10-13T00:00:01.999Z,99.99
2017-10-13T00:01:01.993Z,99.99
2017-10-13T00:02:01.981Z,99.98
2017-10-13T00:03:01.971Z,99.6
2017-10-13T00:04:01.960Z,99.99
2017-10-13T00:05:01.955Z,99.98
2017-10-13T00:06:01.953Z,99.89
2017-10-13T00:07:01.933Z,99.51
2017-10-13T00:08:01.592Z,99.99
2017-10-13T00:09:01.917Z,99.69
2017-10-13T00:10:01.911Z,99.98
2017-10-13T00:11:01.896Z,99.69
2017-10-13T00:12:01.893Z,99.6
2017-10-13T00:13:01.546Z,99.79
2017-10-13T00:14:01.536Z,99.79
2017-10-13T00:15:01.861Z,99.51
2017-10-13T00:16:01.851Z,99.51
2017-10-13T00:17:01.847Z,99.69
2017-10-13T00:18:01.831Z,99.51
2017-10-13T00:19:01.825Z,99.22
2017-10-13T00:20:01.814Z,99.32
2017-10-13T00:21:01.809Z,98.94
2017-10-13T00:22:01.473Z,98.94
2017-10-13T00:23:01.793Z,99.08
2017-10-13T00:24:01.445Z,99.37
2017-10-13T00:25:01.436Z,98.79
2017-10-13T00:26:01.773Z,98.51
2017-10-13T00:27:01.751Z,98.6
2017-10-13T00:28:01.748Z,98.32
2017-10-13T00:29:01.730Z,98.51
2017-10-13T00:30:01.720Z,98.03
2017-10-13T00:31:01.717Z,97.94
2017-10-13T00:32:01.708Z,98.03
2017-10-13T00:33:01.699Z,98.32
2017-10-13T00:34:01.690Z,97.94
2017-10-13T00:35:01.677Z,97.75
2017-10-13T00:36:01.668Z,97.94
2017-10-13T00:37:01.660Z,97.94
2017-10-13T00:38:01.318Z,97.94
2017-10-13T00:39:01.641Z,97.89
2017-10-13T00:40:01.634Z,97.7
2017-10-13T00:41:01.625Z,97.7
2017-10-13T00:42:01.613Z,97.89
2017-10-13T00:43:01.616Z,97.41
2017-10-13T00:44:01.599Z,97.32
2017-10-13T00:45:01.590Z,97.51
2017-10-13T00:46:01.585Z,97.32
2017-10-13T00:47:01.574Z,97.13
2017-10-13T00:48:01.566Z,97.32
2017-10-13T00:49:01.557Z,97.51
2017-10-13T00:50:01.213Z,96.84
2017-10-13T00:51:01.206Z,97.32
2017-10-13T00:52:01.528Z,96.65
2017-10-13T00:53:01.525Z,97.32
2017-10-13T00:54:01.521Z,96.27
2017-10-13T00:55:01.506Z,96.75
2017-10-13T00:56:01.493Z,96.27
2017-10-13T00:57:01.487Z,96.84
2017-10-13T00:58:01.479Z,96.75
2017-10-13T00:59:01.142Z,96.46
2017-10-13T01:00:01.465Z,97.03
2017-10-13T01:01:01.455Z,96.46
2017-10-13T01:02:01.446Z,96.46
2017-10-13T01:03:01.438Z,96.27
2017-10-13T01:04:01.427Z,96.46
2017-10-13T01:05:01.421Z,96.56
2017-10-13T01:06:01.407Z,96.51
2017-10-13T01:07:01.401Z,96.75
2017-10-13T01:08:01.396Z,96.65
2017-10-13T01:09:01.384Z,96.56
2017-10-13T01:10:01.388Z,96.32
2017-10-13T01:11:01.381Z,96.41
2017-10-13T01:12:01.359Z,96.51
2017-10-13T01:13:01.349Z,96.7
2017-10-13T01:14:01.340Z,96.8
2017-10-13T01:15:01.337Z,96.32
2017-10-13T01:16:01.325Z,96.7
2017-10-13T01:17:01.320Z,96.7
2017-10-13T01:18:01.321Z,96.75
2017-10-13T01:19:01.317Z,96.7
2017-10-13T01:20:01.292Z,96.7
2017-10-13T01:21:01.286Z,96.51
2017-10-13T01:22:01.276Z,96.61
2017-10-13T01:23:01.270Z,96.8
2017-10-13T01:24:01.260Z,96.61
2017-10-13T01:25:01.251Z,96.61
2017-10-13T01:26:01.242Z,96.51
2017-10-13T01:27:01.234Z,96.51
2017-10-13T01:28:00.895Z,96.7
2017-10-13T01:29:01.217Z,96.51
2017-10-13T01:30:01.219Z,96.7
2017-10-13T01:31:00.868Z,96.61
2017-10-13T01:32:01.194Z,96.61
2017-10-13T01:33:01.181Z,96.61
2017-10-13T01:34:01.175Z,96.7
2017-10-13T01:35:01.170Z,96.22
2017-10-13T01:36:00.855Z,96.61
2017-10-13T01:37:01.150Z,96.41
2017-10-13T01:38:01.356Z,96.7
2017-10-13T01:39:01.134Z,96.51
2017-10-13T01:40:01.127Z,96.7
2017-10-13T01:41:01.118Z,96.51
2017-10-13T01:42:01.110Z,97.27
2017-10-13T01:43:01.105Z,97.08
2017-10-13T01:44:01.097Z,96.51
2017-10-13T01:45:01.086Z,96.61
2017-10-13T01:46:00.746Z,96.51
2017-10-13T01:47:01.071Z,96.8
2017-10-13T01:48:00.728Z,96.61
2017-10-13T01:49:00.721Z,96.51
2017-10-13T01:50:01.042Z,97.08
2017-10-13T01:51:01.037Z,96.41
2017-10-13T01:52:01.028Z,97.08
2017-10-13T01:53:01.020Z,96.98
2017-10-13T01:54:01.027Z,96.8
2017-10-13T01:55:01.002Z,97.08
2017-10-13T01:56:00.997Z,97.17
2017-10-13T01:57:01.287Z,97.08
2017-10-13T01:58:00.645Z,96.89
2017-10-13T01:59:00.970Z,96.61
2017-10-13T02:00:00.968Z,96.7
2017-10-13T02:01:00.953Z,96.7
2017-10-13T02:02:00.954Z,96.61
2017-10-13T02:03:00.938Z,96.61
2017-10-13T02:04:00.928Z,96.7
2017-10-13T02:05:00.917Z,96.61
2017-10-13T02:06:00.912Z,96.51
2017-10-13T02:07:00.902Z,97.27
2017-10-13T02:08:00.562Z,96.61
2017-10-13T02:09:00.889Z,96.98
2017-10-13T02:10:00.879Z,97.08
2017-10-13T02:11:00.890Z,96.61
2017-10-13T02:12:00.529Z,97.17
2017-10-13T02:13:00.854Z,97.08
2017-10-13T02:14:00.516Z,97.08
2017-10-13T02:15:00.510Z,96.89
2017-10-13T02:16:00.831Z,97.17
2017-10-13T02:17:00.821Z,96.61
2017-10-13T02:18:00.814Z,97.27
2017-10-13T02:19:00.808Z,97.27
2017-10-13T02:20:00.799Z,96.8
2017-10-13T02:21:00.789Z,96.7
2017-10-13T02:22:00.778Z,96.89
2017-10-13T02:23:01.074Z,96.89
2017-10-13T02:24:00.767Z,96.61
2017-10-13T02:25:00.758Z,96.7
2017-10-13T02:26:00.749Z,96.51
2017-10-13T02:27:00.742Z,96.61
2017-10-13T02:28:01.037Z,96.8
2017-10-13T02:29:00.726Z,96.7
2017-10-13T02:30:00.718Z,96.8
2017-10-13T02:31:00.711Z,96.61
2017-10-13T02:32:00.704Z,96.51
2017-10-13T02:33:00.703Z,96.89
2017-10-13T02:34:00.686Z,96.51
2017-10-13T02:35:00.676Z,96.8
2017-10-13T02:36:00.666Z,96.32
2017-10-13T02:37:00.658Z,96.51
2017-10-13T02:38:00.649Z,96.32
2017-10-13T02:39:00.644Z,96.32
2017-10-13T02:40:00.639Z,96.51
2017-10-13T02:41:00.631Z,96.51
2017-10-13T02:42:00.619Z,96.32
2017-10-13T02:43:00.279Z,96.8
2017-10-13T02:44:00.603Z,96.8
2017-10-13T02:45:00.591Z,96.8
2017-10-13T02:46:00.585Z,96.89
2017-10-13T02:47:00.245Z,96.7
2017-10-13T02:48:00.570Z,96.7
2017-10-13T02:49:00.561Z,96.61
2017-10-13T02:50:00.553Z,96.7
2017-10-13T02:51:00.545Z,97.08
2017-10-13T02:52:00.536Z,96.32
2017-10-13T02:53:00.530Z,96.32
2017-10-13T02:54:00.823Z,96.8
2017-10-13T02:55:00.515Z,96.89
2017-10-13T02:56:00.507Z,96.61
2017-10-13T02:57:00.507Z,96.7
2017-10-13T02:58:00.488Z,96.61
2017-10-13T02:59:00.148Z,96.8
2017-10-13T03:00:00.471Z,96.7
2017-10-13T03:01:00.137Z,96.61
2017-10-13T03:02:00.456Z,96.89
2017-10-13T03:03:00.447Z,96.61
2017-10-13T03:04:00.439Z,96.8
2017-10-13T03:05:00.434Z,96.32
2017-10-13T03:06:00.429Z,96.8
2017-10-13T03:07:00.414Z,96.61
2017-10-13T03:08:00.410Z,96.89
2017-10-13T03:09:00.066Z,96.61
2017-10-13T03:10:00.390Z,96.89
2017-10-13T03:11:00.388Z,96.8
2017-10-13T03:12:00.374Z,96.89
2017-10-13T03:13:00.366Z,96.89
2017-10-13T03:14:00.359Z,96.41
2017-10-13T03:15:00.020Z,96.32
2017-10-13T03:16:00.344Z,96.51
2017-10-13T03:16:59.999Z,96.32
2017-10-13T03:18:00.323Z,96.51
2017-10-13T03:19:00.321Z,97.27
2017-10-13T03:20:00.312Z,97.08
2017-10-13T03:21:00.300Z,96.98
2017-10-13T03:21:59.962Z,97.27
2017-10-13T03:23:00.283Z,96.98
2017-10-13T03:23:59.942Z,97.08
2017-10-13T03:25:00.270Z,96.89
2017-10-13T03:26:00.261Z,97.27
2017-10-13T03:27:00.256Z,97.17
2017-10-13T03:28:00.243Z,97.37
2017-10-13T03:29:00.235Z,97.37
2017-10-13T03:30:00.228Z,97.85
2017-10-13T03:31:00.225Z,97.94
2017-10-13T03:32:00.226Z,97.66
2017-10-13T03:32:59.869Z,97.66
2017-10-13T03:34:00.193Z,97.75
2017-10-13T03:34:59.853Z,97.66
2017-10-13T03:36:00.175Z,98.03
2017-10-13T03:37:00.170Z,97.94
2017-10-13T03:38:00.160Z,98.03
2017-10-13T03:39:00.151Z,97.8
2017-10-13T03:40:00.145Z,97.99
2017-10-13T03:41:00.146Z,98.27
2017-10-13T03:42:00.129Z,98.36
2017-10-13T03:43:00.121Z,98.56
2017-10-13T03:44:00.113Z,98.18
2017-10-13T03:45:00.104Z,98.65
2017-10-13T03:46:00.091Z,99.22
2017-10-13T03:47:00.096Z,99.13
2017-10-13T03:48:00.082Z,99.13
2017-10-13T03:49:00.076Z,99.32
2017-10-13T03:49:59.729Z,98.94
2017-10-13T03:51:00.049Z,99.51
2017-10-13T03:51:59.711Z,99.89
2017-10-13T03:53:00.034Z,99.55
2017-10-13T03:54:00.025Z,99.99
2017-10-13T03:55:00.017Z,99.84
2017-10-13T03:56:00.009Z,99.99
2017-10-13T03:56:59.669Z,99.99
2017-10-13T03:58:00.007Z,99.99
2017-10-13T03:58:59.985Z,99.94
2017-10-13T03:59:59.978Z,99.99
2017-10-13T04:00:59.966Z,99.99
2017-10-13T04:01:59.966Z,99.99
2017-10-13T04:02:59.951Z,99.99
2017-10-13T04:03:59.944Z,99.99
2017-10-13T04:04:59.933Z,99.99
2017-10-13T04:05:59.939Z,99.99
2017-10-13T04:06:59.913Z,99.99
2017-10-13T04:07:59.905Z,99.99
2017-10-13T04:08:59.898Z,99.99
2017-10-13T04:09:59.891Z,99.99
2017-10-13T04:10:59.878Z,99.99
2017-10-13T04:11:59.872Z,99.99
2017-10-13T04:12:59.534Z,99.99
2017-10-13T04:13:59.856Z,99.99
2017-10-13T04:14:59.512Z,99.99
2017-10-13T04:15:59.835Z,99.99
2017-10-13T04:16:59.830Z,99.99
2017-10-13T04:17:59.816Z,99.99
2017-10-13T04:18:59.808Z,99.99
2017-10-13T04:19:59.805Z,99.99
2017-10-13T04:20:59.791Z,99.99
2017-10-13T04:21:59.778Z,99.99
2017-10-13T04:22:59.772Z,99.99
2017-10-13T04:23:59.766Z,99.99
2017-10-13T04:24:59.754Z,99.99
2017-10-13T04:25:59.414Z,99.99
2017-10-13T04:26:59.736Z,99.99
2017-10-13T04:27:59.395Z,99.99
2017-10-13T04:28:59.720Z,99.99
2017-10-13T04:29:59.712Z,99.99
2017-10-13T04:30:59.708Z,99.99
2017-10-13T04:31:59.691Z,99.99
2017-10-13T04:32:59.988Z,99.99
2017-10-13T04:33:59.674Z,99.99
2017-10-13T04:34:59.673Z,99.99
2017-10-13T04:35:59.656Z,99.99
2017-10-13T04:36:59.315Z,99.99
2017-10-13T04:37:59.314Z,99.99
2017-10-13T04:38:59.629Z,99.99
2017-10-13T04:39:59.627Z,99.99
2017-10-13T04:40:59.614Z,99.99
2017-10-13T04:41:59.601Z,99.99
2017-10-13T04:42:59.261Z,99.99
2017-10-13T04:43:59.581Z,99.99
2017-10-13T04:44:59.589Z,99.99
2017-10-13T04:45:59.233Z,99.99
2017-10-13T04:46:59.555Z,99.99
2017-10-13T04:47:59.547Z,99.99
2017-10-13T04:48:59.540Z,99.99
2017-10-13T04:49:59.525Z,99.99
2017-10-13T04:50:59.519Z,99.99
2017-10-13T04:51:59.507Z,99.99
2017-10-13T04:52:59.502Z,99.99
2017-10-13T04:53:59.507Z,99.99
2017-10-13T04:54:59.150Z,99.99
2017-10-13T04:55:59.470Z,99.99
2017-10-13T04:56:59.468Z,99.99
2017-10-13T04:57:59.456Z,99.99
2017-10-13T04:58:59.365Z,99.99
2017-10-13T04:59:59.434Z,99.99
2017-10-13T05:00:59.427Z,99.99
2017-10-13T05:01:59.421Z,99.99
2017-10-13T05:02:59.410Z,99.99
2017-10-13T05:03:59.399Z,99.99
2017-10-13T05:04:59.393Z,99.99
2017-10-13T05:05:59.394Z,99.99
2017-10-13T05:06:59.377Z,99.99
2017-10-13T05:07:59.364Z,99.99
2017-10-13T05:08:59.023Z,99.99
2017-10-13T05:09:59.343Z,99.99
2017-10-13T05:10:59.336Z,99.99
2017-10-13T05:11:59.330Z,99.99
2017-10-13T05:12:59.315Z,99.99
2017-10-13T05:13:59.311Z,99.99
2017-10-13T05:14:59.299Z,99.99
2017-10-13T05:15:58.957Z,99.99
2017-10-13T05:16:59.279Z,99.99
2017-10-13T05:17:59.268Z,99.99
2017-10-13T05:18:59.261Z,99.99
2017-10-13T05:19:59.250Z,99.99
2017-10-13T05:20:59.243Z,99.99
2017-10-13T05:21:59.234Z,99.99
2017-10-13T05:22:59.224Z,99.99
2017-10-13T05:23:59.218Z,99.99
2017-10-13T05:24:59.207Z,99.99
2017-10-13T05:25:59.195Z,99.99
2017-10-13T05:26:59.191Z,99.99
2017-10-13T05:27:59.181Z,99.99
2017-10-13T05:28:59.166Z,99.99
2017-10-13T05:29:59.405Z,99.99
2017-10-13T05:30:59.150Z,99.99
2017-10-13T05:31:59.142Z,99.99
2017-10-13T05:32:59.132Z,99.99
2017-10-13T05:33:58.790Z,99.99
2017-10-13T05:34:59.111Z,99.99
2017-10-13T05:35:59.118Z,99.99
2017-10-13T05:36:59.090Z,99.99
2017-10-13T05:37:59.085Z,99.99
2017-10-13T05:38:59.074Z,99.99
2017-10-13T05:39:59.063Z,99.99
2017-10-13T05:40:58.724Z,99.99
2017-10-13T05:41:59.050Z,99.99
2017-10-13T05:42:59.033Z,99.99
2017-10-13T05:43:59.025Z,99.99
2017-10-13T05:44:59.016Z,99.99
2017-10-13T05:45:59.009Z,99.99
2017-10-13T05:46:58.997Z,99.99
2017-10-13T05:47:58.655Z,99.99
2017-10-13T05:48:58.980Z,99.99
2017-10-13T05:49:58.967Z,99.99
2017-10-13T05:50:58.960Z,99.99
2017-10-13T05:51:58.951Z,99.99
2017-10-13T05:52:58.942Z,99.99
2017-10-13T05:53:58.934Z,99.99
2017-10-13T05:54:58.924Z,99.99
2017-10-13T05:55:58.915Z,99.99
2017-10-13T05:56:58.573Z,99.99
2017-10-13T05:57:58.893Z,99.99
2017-10-13T05:58:58.889Z,99.99
2017-10-13T05:59:58.878Z,99.99
2017-10-13T06:00:59.115Z,99.99
2017-10-13T06:01:58.862Z,99.99
2017-10-13T06:02:58.849Z,99.99
2017-10-13T06:03:58.511Z,99.99
2017-10-13T06:04:58.831Z,99.99
2017-10-13T06:05:58.824Z,99.99
2017-10-13T06:06:58.483Z,99.65
2017-10-13T06:07:58.808Z,99.99
2017-10-13T06:08:58.797Z,99.51
2017-10-13T06:09:58.458Z,98.94
2017-10-13T06:10:58.782Z,99.04
2017-10-13T06:11:58.440Z,98.75
2017-10-13T06:12:58.433Z,98.18
2017-10-13T06:13:58.757Z,98.36
2017-10-13T06:14:58.752Z,97.99
2017-10-13T06:15:58.408Z,98.18
2017-10-13T06:16:58.748Z,97.85
2017-10-13T06:17:58.722Z,97.85
2017-10-13T06:18:58.719Z,97.94
2017-10-13T06:19:58.710Z,97.85
2017-10-13T06:20:58.701Z,97.46
2017-10-13T06:21:58.701Z,96.98
2017-10-13T06:22:58.688Z,96.8
2017-10-13T06:23:58.680Z,97.13
2017-10-13T06:24:58.671Z,95.98
2017-10-13T06:25:58.334Z,96.37
2017-10-13T06:26:58.324Z,96.27
2017-10-13T06:27:58.652Z,95.94
2017-10-13T06:28:58.312Z,95.65
2017-10-13T06:29:58.636Z,95.36
2017-10-13T06:30:58.631Z,94.79
2017-10-13T06:31:58.921Z,94.84
2017-10-13T06:32:58.618Z,93.88
2017-10-13T06:33:58.609Z,94.36
2017-10-13T06:34:58.603Z,94.07
2017-10-13T06:35:58.796Z,93.79
2017-10-13T06:36:58.591Z,93.5
2017-10-13T06:37:58.581Z,93.74
2017-10-13T06:38:58.583Z,93.45
2017-10-13T06:39:58.571Z,92.88
2017-10-13T06:40:58.563Z,92.59
2017-10-13T06:41:58.567Z,92.45
2017-10-13T06:42:58.564Z,92.45
2017-10-13T06:43:58.547Z,91.59
2017-10-13T06:44:58.551Z,92.07
2017-10-13T06:45:58.544Z,92.02
2017-10-13T06:46:58.200Z,91.44
2017-10-13T06:47:58.530Z,91.44
2017-10-13T06:48:58.527Z,91.06
2017-10-13T06:49:58.525Z,90.53
2017-10-13T06:50:58.514Z,90.24
2017-10-13T06:51:58.513Z,89.86
2017-10-13T06:52:58.506Z,89.95
2017-10-13T06:53:58.505Z,89.86
2017-10-13T06:54:58.497Z,89.38
2017-10-13T06:55:58.496Z,89
2017-10-13T06:56:58.486Z,88.95
2017-10-13T06:57:58.489Z,88.95
2017-10-13T06:58:58.479Z,89.04
2017-10-13T06:59:58.477Z,88.37
2017-10-13T07:00:58.475Z,88.56
2017-10-13T07:01:58.469Z,88.09
2017-10-13T07:02:58.464Z,88.66
2017-10-13T07:03:58.461Z,88.37
2017-10-13T07:04:58.479Z,87.51
2017-10-13T07:05:58.459Z,87.8
2017-10-13T07:06:58.446Z,87.8
2017-10-13T07:07:58.445Z,88.09
2017-10-13T07:08:58.110Z,87.51
2017-10-13T07:09:58.442Z,88.09
2017-10-13T07:10:58.434Z,87.7
2017-10-13T07:11:58.099Z,87.7
2017-10-13T07:12:58.425Z,87.9
2017-10-13T07:13:58.424Z,87.8
2017-10-13T07:14:58.421Z,87.8
2017-10-13T07:15:58.418Z,87.9
2017-10-13T07:16:58.080Z,87.8
2017-10-13T07:17:58.410Z,87.8
2017-10-13T07:18:58.404Z,87.51
2017-10-13T07:19:58.400Z,87.61
2017-10-13T07:20:58.395Z,87.99
2017-10-13T07:21:58.397Z,87.99
2017-10-13T07:22:58.389Z,87.8
2017-10-13T07:23:58.389Z,88.09
2017-10-13T07:24:58.380Z,87.99
2017-10-13T07:25:58.381Z,87.9
2017-10-13T07:26:58.372Z,88.37
2017-10-13T07:27:58.368Z,88.56
2017-10-13T07:28:58.037Z,88.47
2017-10-13T07:29:58.362Z,88.66
2017-10-13T07:30:58.358Z,88.47
2017-10-13T07:31:58.358Z,88.47
2017-10-13T07:32:58.350Z,88.28
2017-10-13T07:33:58.344Z,88.28
2017-10-13T07:34:58.015Z,88.18
2017-10-13T07:35:58.338Z,88.28
2017-10-13T07:36:58.336Z,88.37
2017-10-13T07:37:58.006Z,88.95
2017-10-13T07:38:58.328Z,88.56
2017-10-13T07:39:57.994Z,88.56
2017-10-13T07:40:58.321Z,88.47
2017-10-13T07:41:58.319Z,89.14
2017-10-13T07:42:58.317Z,88.76
2017-10-13T07:43:58.311Z,88.85
2017-10-13T07:44:58.305Z,89.43
2017-10-13T07:45:58.308Z,89.33
2017-10-13T07:46:58.301Z,89.43
2017-10-13T07:47:58.492Z,89.43
2017-10-13T07:48:58.294Z,89.33
2017-10-13T07:49:58.281Z,89.33
2017-10-13T07:50:57.947Z,88.95
2017-10-13T07:51:58.276Z,88.42
2017-10-13T07:52:57.945Z,87.84
2017-10-13T07:53:58.269Z,87.84
2017-10-13T07:54:58.263Z,87.5
2017-10-13T07:55:58.255Z,86.83
2017-10-13T07:56:57.921Z,87.02
2017-10-13T07:57:57.914Z,87.02
2017-10-13T07:58:58.242Z,86.74
2017-10-13T07:59:58.237Z,86.83
2017-10-13T08:00:57.904Z,87.02
2017-10-13T08:01:58.233Z,85.97
2017-10-13T08:02:58.226Z,85.88
2017-10-13T08:03:57.890Z,85.92
2017-10-13T08:04:58.216Z,85.92
2017-10-13T08:05:58.212Z,86.25
2017-10-13T08:06:58.212Z,86.01
2017-10-13T08:07:58.208Z,86.21
2017-10-13T08:08:58.202Z,86.01
2017-10-13T08:09:58.198Z,86.3
2017-10-13T08:10:57.863Z,85.05
2017-10-13T08:11:58.206Z,84.95
2017-10-13T08:12:58.184Z,84.61
2017-10-13T08:13:58.181Z,85.19
2017-10-13T08:14:57.844Z,84.71
2017-10-13T08:15:58.172Z,85.1
2017-10-13T08:16:58.173Z,84.91
2017-10-13T08:17:58.166Z,84.81
2017-10-13T08:18:57.832Z,84.71
2017-10-13T08:19:58.163Z,84.61
2017-10-13T08:20:58.154Z,84.91
2017-10-13T08:21:58.158Z,84.61
2017-10-13T08:22:58.146Z,84.52
2017-10-13T08:23:58.156Z,84.91
2017-10-13T08:24:57.809Z,84.42
2017-10-13T08:25:58.135Z,84.81
2017-10-13T08:26:58.131Z,84.91
2017-10-13T08:27:58.134Z,85
2017-10-13T08:28:58.126Z,84.81
2017-10-13T08:29:58.129Z,84.61
2017-10-13T08:30:58.117Z,84.23
2017-10-13T08:31:58.114Z,84.52
2017-10-13T08:32:58.110Z,84.42
2017-10-13T08:33:57.775Z,85
2017-10-13T08:34:57.774Z,84.23
2017-10-13T08:35:58.101Z,84.91
2017-10-13T08:36:57.766Z,84.71
2017-10-13T08:37:58.099Z,84.71
2017-10-13T08:38:58.093Z,85.1
2017-10-13T08:39:58.091Z,84.71
2017-10-13T08:40:58.086Z,85
2017-10-13T08:41:58.081Z,84.81
2017-10-13T08:42:58.076Z,85.19
2017-10-13T08:43:58.075Z,84.42
2017-10-13T08:44:58.072Z,84.91
2017-10-13T08:45:58.065Z,84.81
2017-10-13T08:46:58.061Z,84.23
2017-10-13T08:47:58.065Z,84.23
2017-10-13T08:48:58.054Z,84.52
2017-10-13T08:49:58.052Z,84.52
2017-10-13T08:50:57.715Z,84.71
2017-10-13T08:51:58.049Z,84.61
2017-10-13T08:52:57.713Z,84.81
2017-10-13T08:53:58.034Z,85
2017-10-13T08:54:57.701Z,84.71
2017-10-13T08:55:58.029Z,84.91
2017-10-13T08:56:58.026Z,83.85
2017-10-13T08:57:58.031Z,85
2017-10-13T08:58:58.018Z,84.81
2017-10-13T08:59:58.021Z,84.91
2017-10-13T09:00:57.682Z,84.67
2017-10-13T09:01:58.009Z,85.63
2017-10-13T09:02:57.673Z,85.19
2017-10-13T09:03:58.001Z,85.86
2017-10-13T09:04:58.000Z,85.38
2017-10-13T09:05:57.992Z,85.58
2017-10-13T09:06:57.987Z,86.54
2017-10-13T09:07:57.652Z,85.28
2017-10-13T09:08:57.985Z,85.44
2017-10-13T09:09:57.974Z,85.38
2017-10-13T09:10:57.970Z,85.53
2017-10-13T09:11:57.972Z,86.3
2017-10-13T09:12:57.965Z,86.21
2017-10-13T09:13:57.961Z,86.21
2017-10-13T09:14:57.959Z,86.4
2017-10-13T09:15:57.956Z,85.96
2017-10-13T09:16:57.951Z,85.82
2017-10-13T09:17:57.615Z,85.67
2017-10-13T09:18:57.943Z,86.15
2017-10-13T09:19:57.937Z,85.19
2017-10-13T09:20:57.934Z,85.28
2017-10-13T09:21:57.935Z,84.91
2017-10-13T09:22:57.594Z,84.91
2017-10-13T09:23:57.927Z,85
2017-10-13T09:24:57.918Z,85.1
2017-10-13T09:25:57.918Z,85.19
2017-10-13T09:26:57.780Z,85.19
2017-10-13T09:27:57.905Z,85.48
2017-10-13T09:28:57.902Z,85.1
2017-10-13T09:29:57.902Z,85.38
2017-10-13T09:30:57.563Z,85.86
2017-10-13T09:31:57.900Z,85.96
2017-10-13T09:32:57.888Z,86.25
2017-10-13T09:33:57.885Z,85.19
2017-10-13T09:34:57.883Z,85.77
2017-10-13T09:35:57.882Z,85.96
2017-10-13T09:36:57.540Z,86.44
2017-10-13T09:37:57.872Z,86.34
2017-10-13T09:38:57.865Z,85.96
2017-10-13T09:39:57.862Z,86.54
2017-10-13T09:40:57.728Z,86.05
2017-10-13T09:41:57.852Z,86.34
2017-10-13T09:42:57.849Z,86.34
2017-10-13T09:43:57.851Z,86.54
2017-10-13T09:44:57.510Z,85.77
2017-10-13T09:45:57.517Z,86.15
2017-10-13T09:46:57.839Z,86.15
2017-10-13T09:47:57.499Z,86.05
2017-10-13T09:48:57.494Z,86.15
2017-10-13T09:49:57.821Z,86.25
2017-10-13T09:50:57.821Z,86.44
2017-10-13T09:51:57.484Z,86.25
2017-10-13T09:52:57.810Z,86.54
2017-10-13T09:53:57.818Z,86.05
2017-10-13T09:54:57.802Z,85.96
2017-10-13T09:55:57.801Z,86.44
2017-10-13T09:56:57.796Z,86.05
2017-10-13T09:57:57.457Z,86.54
2017-10-13T09:58:57.789Z,86.63
2017-10-13T09:59:57.451Z,86.15
2017-10-13T10:00:57.780Z,86.54
2017-10-13T10:01:57.444Z,85.86
2017-10-13T10:02:57.439Z,85.96
2017-10-13T10:03:57.784Z,86.05
2017-10-13T10:04:57.769Z,86.05
2017-10-13T10:05:57.761Z,86.25
2017-10-13T10:06:57.754Z,85.96
2017-10-13T10:07:57.774Z,85.96
2017-10-13T10:08:57.418Z,86.15
2017-10-13T10:09:57.421Z,85.77
2017-10-13T10:10:57.746Z,86.19
2017-10-13T10:11:57.737Z,86
2017-10-13T10:12:57.401Z,86
2017-10-13T10:13:57.399Z,85.81
2017-10-13T10:14:57.724Z,85.33
2017-10-13T10:15:57.725Z,84.85
2017-10-13T10:16:57.722Z,84.85
2017-10-13T10:17:57.713Z,84.47
2017-10-13T10:18:57.712Z,85.33
2017-10-13T10:19:57.707Z,84.66
2017-10-13T10:20:57.371Z,83.84
2017-10-13T10:21:57.702Z,84.31
2017-10-13T10:22:57.700Z,83.93
2017-10-13T10:23:57.692Z,83.84
2017-10-13T10:24:57.358Z,83.16
2017-10-13T10:25:57.356Z,83.93
2017-10-13T10:26:57.685Z,83.54
2017-10-13T10:27:57.687Z,83.59
2017-10-13T10:28:57.677Z,83.59
2017-10-13T10:29:57.672Z,82.92
2017-10-13T10:30:57.683Z,83.2
2017-10-13T10:31:57.675Z,82.63
2017-10-13T10:32:57.664Z,81.52
2017-10-13T10:33:57.671Z,81.61
2017-10-13T10:34:57.655Z,81.71
2017-10-13T10:35:57.320Z,81.04
2017-10-13T10:36:57.318Z,80.94
2017-10-13T10:37:57.645Z,81.04
2017-10-13T10:38:57.644Z,80.65
2017-10-13T10:39:57.310Z,80.11
2017-10-13T10:40:57.644Z,79.44
2017-10-13T10:41:57.646Z,79.73
2017-10-13T10:42:57.632Z,79.05
2017-10-13T10:43:57.632Z,79.38
2017-10-13T10:44:57.632Z,78
2017-10-13T10:45:57.622Z,77.75
2017-10-13T10:46:57.622Z,76.59
2017-10-13T10:47:57.625Z,77.17
2017-10-13T10:48:57.624Z,76.59
2017-10-13T10:49:57.614Z,76.4
2017-10-13T10:50:57.615Z,75.44
2017-10-13T10:51:57.612Z,75.05
2017-10-13T10:52:57.619Z,75.05
2017-10-13T10:53:57.609Z,76.15
2017-10-13T10:54:57.610Z,75.67
2017-10-13T10:55:57.271Z,75.19
2017-10-13T10:56:57.598Z,73.84
2017-10-13T10:57:57.595Z,74.22
2017-10-13T10:58:57.595Z,73.07
2017-10-13T10:59:57.594Z,73.36
2017-10-13T11:00:57.590Z,73.46
2017-10-13T11:01:57.601Z,73.07
2017-10-13T11:02:57.589Z,73.65
2017-10-13T11:03:57.587Z,73.9
2017-10-13T11:04:57.591Z,74.19
2017-10-13T11:05:57.578Z,73.46
2017-10-13T11:06:57.581Z,73.84
2017-10-13T11:07:57.588Z,73.51
2017-10-13T11:08:57.573Z,73.42
2017-10-13T11:09:57.572Z,74.09
2017-10-13T11:10:57.580Z,73.9
2017-10-13T11:11:57.569Z,74.96
2017-10-13T11:12:57.565Z,74.67
2017-10-13T11:13:57.564Z,74.86
2017-10-13T11:14:57.565Z,74.57
2017-10-13T11:15:57.562Z,75.05
2017-10-13T11:16:57.560Z,74.96
2017-10-13T11:17:57.227Z,74.38
2017-10-13T11:18:57.222Z,74.86
2017-10-13T11:19:57.551Z,74.86
2017-10-13T11:20:57.550Z,74.19
2017-10-13T11:21:57.551Z,73.71
2017-10-13T11:22:57.546Z,73.84
2017-10-13T11:23:57.544Z,73.84
2017-10-13T11:24:57.210Z,73.94
2017-10-13T11:25:57.544Z,73.84
2017-10-13T11:26:57.541Z,74.13
2017-10-13T11:27:57.535Z,73.36
2017-10-13T11:28:57.533Z,72.11
2017-10-13T11:29:57.529Z,72.2
2017-10-13T11:30:57.529Z,72.05
2017-10-13T11:31:57.525Z,71.85
2017-10-13T11:32:57.525Z,71.95
2017-10-13T11:33:57.527Z,70.89
2017-10-13T11:34:57.520Z,71.08
2017-10-13T11:35:57.518Z,71.76
2017-10-13T11:36:57.517Z,70.56
2017-10-13T11:37:57.183Z,70.76
2017-10-13T11:38:57.181Z,71.14
2017-10-13T11:39:57.180Z,70.56
2017-10-13T11:40:57.509Z,70.62
2017-10-13T11:41:57.505Z,70.92
2017-10-13T11:42:57.503Z,71.59
2017-10-13T11:43:57.512Z,71.78
2017-10-13T11:44:57.498Z,71.49
2017-10-13T11:45:57.504Z,71.69
2017-10-13T11:46:57.497Z,70.92
2017-10-13T11:47:57.493Z,70.76
2017-10-13T11:48:57.492Z,70.56
2017-10-13T11:49:57.493Z,70.37
2017-10-13T11:50:57.493Z,68.74
2017-10-13T11:51:57.487Z,68.44
2017-10-13T11:52:57.501Z,68.16
2017-10-13T11:53:57.484Z,68.44
2017-10-13T11:54:57.151Z,68.35
2017-10-13T11:55:57.481Z,67.87
2017-10-13T11:56:57.475Z,67.49
2017-10-13T11:57:57.481Z,67
2017-10-13T11:58:57.472Z,67.19
2017-10-13T11:59:57.472Z,67.19
2017-10-13T12:00:57.509Z,66.91
2017-10-13T12:01:57.463Z,67.39
2017-10-13T12:02:57.464Z,66.81
2017-10-13T12:03:57.461Z,66.52
2017-10-13T12:04:57.127Z,66.71
2017-10-13T12:05:57.457Z,67.1
2017-10-13T12:06:57.454Z,67.19
2017-10-13T12:07:57.452Z,66.75
2017-10-13T12:08:57.451Z,66.85
2017-10-13T12:09:57.452Z,66.85
2017-10-13T12:10:57.446Z,66.55
2017-10-13T12:11:57.124Z,65.88
2017-10-13T12:12:57.449Z,66.27
2017-10-13T12:13:57.643Z,66.55
2017-10-13T12:14:57.108Z,66.36
2017-10-13T12:15:57.440Z,66.17
2017-10-13T12:16:57.434Z,66.07
2017-10-13T12:17:57.434Z,66.17
2017-10-13T12:18:57.436Z,65.98
2017-10-13T12:19:57.431Z,65.11
2017-10-13T12:20:57.431Z,64.92
2017-10-13T12:21:57.424Z,64.82
2017-10-13T12:22:57.425Z,64.43
2017-10-13T12:23:57.438Z,64.92
2017-10-13T12:24:57.432Z,65.11
2017-10-13T12:25:57.418Z,65.59
2017-10-13T12:26:57.416Z,65.4
2017-10-13T12:27:57.416Z,65.59
2017-10-13T12:28:57.080Z,65.4
2017-10-13T12:29:57.412Z,65.11
2017-10-13T12:30:57.413Z,65.78
2017-10-13T12:31:57.408Z,64.92
2017-10-13T12:32:57.074Z,65.01
2017-10-13T12:33:57.406Z,65.3
2017-10-13T12:34:57.407Z,66.07
2017-10-13T12:35:57.068Z,66.17
2017-10-13T12:36:57.067Z,65.5
2017-10-13T12:37:57.400Z,65.5
2017-10-13T12:38:57.394Z,65.69
2017-10-13T12:39:57.396Z,66.14
2017-10-13T12:40:57.061Z,66.33
2017-10-13T12:41:57.388Z,67
2017-10-13T12:42:57.389Z,67
2017-10-13T12:43:57.387Z,67.68
2017-10-13T12:44:57.386Z,67.55
2017-10-13T12:45:57.383Z,68.13
2017-10-13T12:46:57.377Z,68.32
2017-10-13T12:47:57.378Z,68.99
2017-10-13T12:48:57.389Z,68.03
2017-10-13T12:49:57.371Z,68.26
2017-10-13T12:50:57.376Z,68.26
2017-10-13T12:51:57.370Z,68.44
2017-10-13T12:52:57.033Z,68.06
2017-10-13T12:53:57.360Z,68.26
2017-10-13T12:54:57.364Z,68.35
2017-10-13T12:55:57.354Z,67.87